Time;durP1;ratioP1;P1;durP2;ratioP2;P2;SDS_P1;SDS_P2;PMS_P1;PMS_P2;Temp;Humidity;BMP_temperature;BMP_pressure;BME280_temperature;BME280_humidity;BME280_pressure;Samples;Min_cycle;Max_cycle;Signal;HPM_P1;HPM_P2
2022/01/11 00:00:11;;;;;;;88.05;24.20;;;;;;;0.51;90.59;102695.31;5016623;28;20045;-68
2022/01/11 00:02:42;;;;;;;87.20;24.30;;;;;;;0.46;90.73;102698.06;5016636;28;20103;-68
2022/01/11 00:05:32;;;;;;;121.50;24.42;;;;;;;0.67;90.93;102707.03;5016374;28;20079;-68
2022/01/11 00:07:59;;;;;;;82.88;24.48;;;;;;;0.54;90.39;102703.06;5018054;28;20095;-69
2022/01/11 00:10:31;;;;;;;82.25;23.33;;;;;;;0.56;90.51;102709.09;5033634;28;20095;-68
2022/01/11 00:13:00;;;;;;;74.70;24.63;;;;;;;0.50;90.71;102704.06;5034064;28;20045;-67
2022/01/11 00:15:28;;;;;;;86.90;24.25;;;;;;;0.49;91.04;102700.59;5032931;28;20045;-67
2022/01/11 00:17:57;;;;;;;111.38;24.50;;;;;;;0.62;90.74;102706.34;5016462;28;20076;-68
2022/01/11 00:20:27;;;;;;;87.10;24.75;;;;;;;0.53;90.67;102697.00;5033583;28;20045;-68
2022/01/11 00:25:34;;;;;;;80.93;22.98;;;;;;;0.58;90.64;102707.31;5033382;28;20128;-68
2022/01/11 00:28:01;;;;;;;77.35;22.55;;;;;;;0.61;89.59;102715.06;5016142;28;20095;-68
2022/01/11 00:30:33;;;;;;;71.22;23.50;;;;;;;0.68;89.42;102698.31;5000096;28;20069;-68
2022/01/11 00:33:05;;;;;;;77.85;24.50;;;;;;;0.64;90.42;102706.28;5033552;28;20445;-68
2022/01/11 00:35:42;;;;;;;81.95;23.55;;;;;;;0.64;90.16;102701.94;5031639;28;20049;-68
2022/01/11 00:38:16;;;;;;;80.63;25.20;;;;;;;0.56;89.71;102702.16;5033906;28;20249;-68
2022/01/11 00:40:47;;;;;;;71.32;25.17;;;;;;;0.41;90.44;102705.16;5015878;28;20120;-68
2022/01/11 00:43:16;;;;;;;71.38;24.42;;;;;;;0.64;89.93;102707.16;5015134;28;20041;-68
2022/01/11 00:45:44;;;;;;;78.95;23.65;;;;;;;0.52;89.57;102704.88;5033093;28;20128;-68
2022/01/11 00:48:12;;;;;;;75.38;24.55;;;;;;;0.54;89.96;102696.06;5033658;28;20053;-66
2022/01/11 00:50:39;;;;;;;66.18;23.20;;;;;;;0.63;89.97;102700.19;5016142;28;20046;-68
2022/01/11 00:53:08;;;;;;;70.13;23.77;;;;;;;0.60;89.04;102705.53;5033598;28;20132;-66
2022/01/11 00:55:35;;;;;;;79.68;21.75;;;;;;;0.47;89.81;102702.34;5032313;28;20048;-66
2022/01/11 00:58:02;;;;;;;60.03;21.70;;;;;;;0.52;89.11;102699.63;5015981;28;20442;-69
2022/01/11 01:00:33;;;;;;;69.47;23.15;;;;;;;0.53;90.26;102712.66;5015981;28;20490;-67
2022/01/11 01:03:00;;;;;;;95.90;22.23;;;;;;;0.51;90.13;102713.59;5035345;28;20042;-67
2022/01/11 01:05:28;;;;;;;61.97;22.88;;;;;;;0.47;89.67;102717.19;5014788;28;20458;-67
2022/01/11 01:07:55;;;;;;;69.10;22.25;;;;;;;0.66;89.30;102717.56;5032399;28;20037;-67
2022/01/11 01:10:26;;;;;;;74.60;22.42;;;;;;;0.59;89.37;102721.25;5015563;28;20092;-67
2022/01/11 01:12:57;;;;;;;75.88;23.80;;;;;;;0.52;89.73;102721.38;5033201;28;20045;-67
2022/01/11 01:15:26;;;;;;;73.82;23.23;;;;;;;0.40;89.43;102728.69;5033376;28;20394;-67
2022/01/11 01:17:57;;;;;;;64.65;23.55;;;;;;;0.24;89.72;102739.53;5016542;28;20410;-67
2022/01/11 01:20:23;;;;;;;102.07;26.40;;;;;;;0.34;90.04;102738.38;5033052;28;20124;-67
2022/01/11 01:22:50;;;;;;;78.30;24.30;;;;;;;0.32;90.16;102741.94;5015779;28;20095;-67
2022/01/11 01:25:20;;;;;;;83.78;26.08;;;;;;;0.15;90.23;102747.59;5031435;28;20120;-67
2022/01/11 01:27:48;;;;;;;84.13;26.67;;;;;;;0.11;90.42;102746.81;5033118;28;20060;-67
2022/01/11 01:30:16;;;;;;;71.80;24.40;;;;;;;0.26;90.46;102755.16;5033125;28;20443;-67
2022/01/11 01:32:43;;;;;;;66.10;22.75;;;;;;;0.27;90.00;102759.47;5032822;28;20099;-67
2022/01/11 01:35:12;;;;;;;77.20;23.73;;;;;;;0.29;90.16;102758.56;5013815;28;20041;-67
2022/01/11 01:37:39;;;;;;;87.15;26.25;;;;;;;0.37;89.32;102759.19;5015397;28;20514;-67
2022/01/11 01:40:07;;;;;;;80.97;26.35;;;;;;;0.43;89.21;102758.19;5031633;28;20080;-67
2022/01/11 01:42:35;;;;;;;82.40;25.77;;;;;;;0.55;89.74;102759.63;5032800;28;20054;-67
2022/01/11 01:45:03;;;;;;;71.60;23.85;;;;;;;0.62;88.97;102752.47;5015517;28;20088;-68
2022/01/11 01:47:31;;;;;;;69.15;24.55;;;;;;;0.33;88.99;102770.63;5032871;28;20041;-68
2022/01/11 01:50:00;;;;;;;73.88;23.35;;;;;;;0.36;89.21;102781.00;5031682;28;20069;-66
2022/01/11 01:52:27;;;;;;;63.70;23.73;;;;;;;0.41;89.30;102774.81;5031374;28;20041;-68
2022/01/11 01:54:53;;;;;;;70.28;24.92;;;;;;;0.42;89.33;102773.88;5037277;28;20095;-69
2022/01/11 01:57:20;;;;;;;70.53;24.73;;;;;;;0.45;89.28;102772.06;5032458;28;20060;-69
2022/01/11 01:59:47;;;;;;;62.13;22.40;;;;;;;0.54;89.37;102779.66;5014912;28;20401;-68
2022/01/11 02:02:14;;;;;;;68.90;23.52;;;;;;;0.56;88.88;102779.63;5032359;28;20053;-69
2022/01/11 02:04:41;;;;;;;76.93;26.42;;;;;;;0.74;88.18;102781.75;5032583;28;20482;-66
2022/01/11 02:07:08;;;;;;;76.05;25.05;;;;;;;0.61;88.51;102784.75;5014827;28;20517;-67
2022/01/11 02:09:35;;;;;;;77.97;25.45;;;;;;;0.65;88.32;102792.44;5032672;28;20046;-68
2022/01/11 02:12:02;;;;;;;87.88;29.55;;;;;;;0.45;89.45;102781.66;5029630;28;20038;-68
2022/01/11 02:14:29;;;;;;;79.68;27.38;;;;;;;0.47;89.50;102795.53;5015178;28;20045;-68
2022/01/11 02:16:57;;;;;;;73.53;26.77;;;;;;;0.44;89.49;102793.88;5032474;28;20049;-69
2022/01/11 02:19:24;;;;;;;80.03;26.05;;;;;;;0.43;89.83;102799.13;5014932;28;20076;-68
2022/01/11 02:21:51;;;;;;;85.70;25.35;;;;;;;0.48;89.31;102794.66;5032206;28;20689;-68
2022/01/11 02:24:19;;;;;;;91.35;27.75;;;;;;;0.50;88.56;102798.06;5032451;28;20049;-68
2022/01/11 02:26:45;;;;;;;80.60;25.92;;;;;;;0.44;88.58;102798.19;5032296;28;20395;-68
2022/01/11 02:29:12;;;;;;;94.07;27.33;;;;;;;0.49;88.96;102801.56;5032389;28;20045;-68
2022/01/11 02:31:39;;;;;;;86.13;26.58;;;;;;;0.52;88.66;102806.72;5014955;28;20071;-68
2022/01/11 02:34:08;;;;;;;86.85;26.23;;;;;;;0.59;88.39;102803.06;5032343;28;20495;-68
2022/01/11 02:36:41;;;;;;;88.47;27.25;;;;;;;0.67;89.08;102802.84;5032006;28;20080;-68
2022/01/11 02:39:22;;;;;;;;;;;;;;;0.62;89.15;102800.38;5033064;28;20045;-68
2022/01/11 02:41:56;;;;;;;99.70;27.48;;;;;;;0.56;89.07;102803.13;5030522;28;19921;-68
2022/01/11 02:44:29;;;;;;;87.43;26.13;;;;;;;0.60;88.97;102796.97;5032177;28;20084;-67
2022/01/11 02:46:58;;;;;;;99.25;28.75;;;;;;;0.36;89.33;102794.06;5032159;28;20065;-67
2022/01/11 02:49:27;;;;;;;93.93;29.92;;;;;;;0.24;90.37;102794.34;5032315;28;20379;-68
2022/01/11 02:52:04;;;;;;;102.03;29.65;;;;;;;0.36;90.17;102794.06;5032123;28;20042;-68
2022/01/11 02:54:31;;;;;;;87.15;29.30;;;;;;;0.30;89.88;102798.56;5032193;28;20052;-68
2022/01/11 02:57:07;;;;;;;95.03;29.00;;;;;;;0.47;89.77;102799.00;5015413;28;20128;-67
2022/01/11 02:59:35;;;;;;;85.28;27.98;;;;;;;0.36;90.06;102790.56;5025268;28;20042;-67
2022/01/11 03:02:02;;;;;;;89.38;28.92;;;;;;;0.55;88.86;102793.59;5025070;28;20091;-67
2022/01/11 03:04:32;;;;;;;75.97;26.42;;;;;;;0.42;89.47;102793.03;5031867;28;20053;-67
2022/01/11 03:07:00;;;;;;;97.03;27.25;;;;;;;0.40;89.54;102792.22;5010407;28;20045;-67
2022/01/11 03:09:41;;;;;;;92.80;27.80;;;;;;;0.54;89.05;102787.50;5036014;28;20045;-67
2022/01/11 03:12:09;;;;;;;84.18;27.58;;;;;;;0.44;89.49;102792.97;5037218;28;20486;-67
2022/01/11 03:14:37;;;;;;;82.22;27.80;;;;;;;0.31;90.14;102798.53;5002380;28;20076;-67
2022/01/11 03:17:05;;;;;;;79.15;26.05;;;;;;;0.41;89.73;102795.69;5001780;28;20059;-67
2022/01/11 03:19:34;;;;;;;76.38;27.13;;;;;;;0.33;89.95;102795.88;5035191;28;20049;-67
2022/01/11 03:22:01;;;;;;;77.18;27.55;;;;;;;0.45;89.37;102797.31;5035103;28;20041;-67
2022/01/11 03:24:28;;;;;;;84.38;27.38;;;;;;;0.04;90.98;102807.88;5034140;28;20498;-67
2022/01/11 03:26:55;;;;;;;79.20;26.65;;;;;;;0.23;90.98;102810.03;5017759;28;20513;-67
2022/01/11 03:29:22;;;;;;;94.68;28.02;;;;;;;0.30;90.19;102815.06;5035134;28;20045;-66
2022/01/11 03:31:49;;;;;;;84.88;30.23;;;;;;;0.29;89.99;102818.59;5001316;28;20046;-68
2022/01/11 03:34:19;;;;;;;95.50;29.33;;;;;;;0.41;89.69;102824.41;5016046;28;20049;-67
2022/01/11 03:36:46;;;;;;;94.97;29.90;;;;;;;0.35;90.46;102828.88;5001535;28;20510;-67
2022/01/11 03:39:13;;;;;;;109.40;28.95;;;;;;;0.42;90.23;102820.88;5035134;28;20072;-67
2022/01/11 03:41:39;;;;;;;106.20;30.88;;;;;;;0.42;89.68;102829.59;5017116;28;20549;-67
2022/01/11 03:44:06;;;;;;;101.60;30.10;;;;;;;0.50;89.45;102821.56;5017372;28;20046;-67
2022/01/11 03:46:33;;;;;;;109.88;31.77;;;;;;;0.57;89.82;102825.75;5005439;28;20503;-67
2022/01/11 03:49:00;;;;;;;93.10;31.13;;;;;;;0.57;88.91;102830.97;5034796;28;20053;-67
2022/01/11 03:51:28;;;;;;;94.43;31.48;;;;;;;0.60;88.59;102830.03;5034833;28;20037;-67
2022/01/11 03:54:08;;;;;;;87.72;29.77;;;;;;;0.67;88.39;102827.22;5034809;28;20120;-67
2022/01/11 03:56:41;;;;;;;87.13;28.83;;;;;;;0.31;89.48;102835.09;5034865;28;20470;-67
2022/01/11 03:59:14;;;;;;;84.75;28.33;;;;;;;0.43;90.05;102831.31;5034690;28;20053;-66
2022/01/11 04:01:41;;;;;;;81.43;27.75;;;;;;;0.27;89.64;102836.03;5034088;28;20568;-66
2022/01/11 04:04:09;;;;;;;80.07;28.23;;;;;;;0.45;89.37;102839.94;5033155;28;20057;-67
2022/01/11 04:06:38;;;;;;;87.60;30.15;;;;;;;0.40;89.02;102848.81;5000754;28;20514;-66
2022/01/11 04:09:06;;;;;;;98.43;30.40;;;;;;;0.38;89.73;102841.00;5016975;28;20398;-67
2022/01/11 04:11:34;;;;;;;96.05;30.13;;;;;;;0.32;89.33;102852.44;5034646;28;20120;-67
2022/01/11 04:14:01;;;;;;;82.10;26.80;;;;;;;0.37;89.35;102853.19;5034115;28;20034;-67
2022/01/11 04:16:28;;;;;;;86.80;28.30;;;;;;;0.40;89.20;102854.91;5000901;28;20117;-67
2022/01/11 04:18:57;;;;;;;82.53;27.60;;;;;;;0.40;89.47;102854.03;4997341;28;20046;-67
2022/01/11 04:21:24;;;;;;;76.43;27.58;;;;;;;0.46;89.02;102854.75;5014412;28;20120;-67
2022/01/11 04:23:54;;;;;;;85.82;29.20;;;;;;;0.39;89.35;102850.56;5014533;28;20045;-67
2022/01/11 04:26:23;;;;;;;92.05;30.15;;;;;;;0.39;89.19;102845.34;4997125;28;20056;-67
2022/01/11 04:28:50;;;;;;;89.05;29.23;;;;;;;0.47;88.61;102847.75;5031824;28;20053;-67
2022/01/11 04:31:17;;;;;;;93.18;28.98;;;;;;;0.48;89.09;102844.25;4998447;28;20046;-67
2022/01/11 04:33:45;;;;;;;95.95;30.80;;;;;;;0.37;88.66;102840.16;5034220;28;20049;-67
2022/01/11 04:36:13;;;;;;;87.85;28.35;;;;;;;0.24;89.33;102848.28;5016408;28;20056;-67
2022/01/11 04:38:40;;;;;;;93.47;29.80;;;;;;;0.31;89.30;102842.91;5034067;28;20139;-67
2022/01/11 04:41:07;;;;;;;88.95;29.63;;;;;;;0.23;89.64;102843.97;5033471;28;20038;-67
2022/01/11 04:43:39;;;;;;;93.05;28.15;;;;;;;0.23;88.97;102846.59;5032806;28;20131;-67
2022/01/11 04:46:06;;;;;;;85.20;30.10;;;;;;;0.24;89.25;102849.19;5033862;28;20069;-67
2022/01/11 04:48:33;;;;;;;107.18;31.08;;;;;;;0.14;90.23;102845.03;5016259;28;20063;-67
2022/01/11 04:51:05;;;;;;;88.40;30.35;;;;;;;0.40;88.98;102846.19;5033596;28;20045;-67
2022/01/11 04:53:32;;;;;;;90.70;29.70;;;;;;;0.30;89.32;102843.78;5033468;28;20041;-66
2022/01/11 04:56:00;;;;;;;99.45;29.80;;;;;;;0.34;89.21;102852.41;4999821;28;20045;-67
2022/01/11 04:58:27;;;;;;;88.53;29.25;;;;;;;0.31;89.54;102847.25;5033500;28;20053;-67
2022/01/11 05:00:54;;;;;;;82.97;29.67;;;;;;;0.29;90.23;102852.53;5033271;28;20041;-67
2022/01/11 05:03:22;;;;;;;85.00;28.23;;;;;;;0.39;89.55;102850.56;5032072;28;20042;-67
2022/01/11 05:05:53;;;;;;;84.20;28.85;;;;;;;0.38;89.07;102846.22;5016520;28;20387;-67
2022/01/11 05:08:20;;;;;;;82.68;28.13;;;;;;;0.26;89.25;102851.75;5015897;28;20225;-67
2022/01/11 05:10:47;;;;;;;80.78;27.65;;;;;;;0.38;88.86;102856.66;5015880;28;20052;-67
2022/01/11 05:13:18;;;;;;;84.88;29.33;;;;;;;0.42;89.08;102860.94;4999783;28;20402;-67
2022/01/11 05:15:46;;;;;;;81.93;28.95;;;;;;;0.37;88.62;102860.19;5015873;28;20494;-66
2022/01/11 05:18:13;;;;;;;89.07;27.13;;;;;;;0.37;88.36;102858.44;5033894;28;20486;-66
2022/01/11 05:20:42;;;;;;;79.88;27.30;;;;;;;0.43;89.13;102860.03;5000523;28;20099;-67
2022/01/11 05:23:10;;;;;;;92.28;29.38;;;;;;;0.48;88.94;102865.16;5033437;28;20042;-67
2022/01/11 05:25:37;;;;;;;89.57;28.13;;;;;;;0.48;88.38;102873.00;5033130;28;20041;-67
2022/01/11 05:28:04;;;;;;;87.28;27.15;;;;;;;0.55;88.10;102869.34;5015240;28;20049;-67
2022/01/11 05:30:31;;;;;;;87.88;27.38;;;;;;;0.37;88.42;102863.66;5033073;28;20046;-66
2022/01/11 05:32:59;;;;;;;106.03;30.10;;;;;;;0.33;88.73;102856.78;5032928;28;20116;-67
2022/01/11 05:35:26;;;;;;;100.05;29.30;;;;;;;0.33;88.76;102856.78;4997185;28;20069;-67
2022/01/11 05:37:54;;;;;;;100.63;29.58;;;;;;;0.29;89.27;102859.50;5032937;28;20128;-67
2022/01/11 05:40:22;;;;;;;105.63;29.02;;;;;;;0.25;88.42;102853.47;4999373;28;20502;-67
2022/01/11 05:42:53;;;;;;;91.28;27.85;;;;;;;0.29;88.57;102867.31;5015129;28;20140;-67
2022/01/11 05:45:21;;;;;;;120.00;29.52;;;;;;;0.18;88.87;102862.34;5032814;28;20129;-66
2022/01/11 05:47:52;;;;;;;97.28;29.83;;;;;;;0.01;90.21;102867.97;5032470;28;20045;-67
2022/01/11 05:50:21;;;;;;;109.93;31.33;;;;;;;0.05;90.08;102868.75;5032818;28;20052;-67
2022/01/11 05:52:49;;;;;;;100.70;31.13;;;;;;;0.06;89.95;102876.53;5032797;28;20052;-67
2022/01/11 05:55:17;;;;;;;115.00;31.67;;;;;;;0.11;90.72;102874.69;5015303;28;20132;-67
2022/01/11 05:57:45;;;;;;;116.28;32.10;;;;;;;0.16;89.83;102875.47;5032573;28;20450;-67
2022/01/11 06:00:16;;;;;;;109.07;32.40;;;;;;;0.27;89.84;102872.56;5032334;28;20484;-67
2022/01/11 06:02:48;;;;;;;122.47;33.13;;;;;;;0.34;89.57;102881.13;5032379;28;20060;-67
2022/01/11 06:05:25;;;;;;;107.82;31.33;;;;;;;0.35;88.79;102880.25;4993439;28;20042;-67
2022/01/11 06:07:52;;;;;;;109.55;30.58;;;;;;;0.41;88.05;102876.66;5032052;28;20053;-67
2022/01/11 06:10:19;;;;;;;109.50;31.50;;;;;;;0.29;88.75;102881.25;4997478;28;20145;-67
2022/01/11 06:12:47;;;;;;;89.47;28.50;;;;;;;0.33;89.05;102885.50;4998453;28;20065;-67
2022/01/11 06:15:14;;;;;;;97.40;28.08;;;;;;;0.40;88.76;102886.25;5032174;28;20046;-67
2022/01/11 06:17:41;;;;;;;85.78;26.42;;;;;;;0.28;89.07;102881.28;5015063;28;20057;-67
2022/01/11 06:20:10;;;;;;;75.60;27.48;;;;;;;0.31;89.27;102882.09;4998686;28;20041;-67
2022/01/11 06:22:38;;;;;;;93.28;27.42;;;;;;;0.27;88.59;102890.84;5032064;28;20087;-67
2022/01/11 06:25:06;;;;;;;76.65;26.60;;;;;;;0.38;88.40;102888.00;5031036;28;20049;-67
2022/01/11 06:27:34;;;;;;;79.65;27.02;;;;;;;0.32;88.93;102880.31;5031279;28;20409;-67
2022/01/11 06:30:02;;;;;;;82.05;27.02;;;;;;;0.43;88.28;102891.38;5032053;28;20080;-67
2022/01/11 06:32:30;;;;;;;80.13;27.15;;;;;;;0.14;87.77;102886.81;5030098;28;20063;-67
2022/01/11 06:34:59;;;;;;;77.80;25.58;;;;;;;0.17;88.17;102882.38;5014640;28;20064;-67
2022/01/11 06:37:25;;;;;;;81.28;25.60;;;;;;;0.08;89.45;102887.81;5014480;28;20494;-67
2022/01/11 06:39:52;;;;;;;68.63;25.70;;;;;;;0.23;88.42;102888.38;5015029;28;20056;-68
2022/01/11 06:42:19;;;;;;;86.03;27.33;;;;;;;0.03;89.41;102884.44;5018456;28;20065;-67
2022/01/11 06:44:46;;;;;;;85.20;25.90;;;;;;;0.13;89.38;102885.97;5035787;28;20494;-67
2022/01/11 06:47:14;;;;;;;91.80;30.00;;;;;;;0.01;89.36;102895.81;5018200;28;20049;-67
2022/01/11 06:49:41;;;;;;;89.80;28.65;;;;;;;0.18;88.51;102904.13;5035535;28;20223;-67
2022/01/11 06:52:09;;;;;;;87.70;28.13;;;;;;;0.02;89.30;102905.34;5017524;28;20486;-67
2022/01/11 06:54:41;;;;;;;80.75;27.55;;;;;;;0.04;90.01;102898.34;5001450;28;20058;-67
2022/01/11 06:57:09;;;;;;;81.53;26.25;;;;;;;-0.01;89.18;102904.53;4984923;28;20076;-68
2022/01/11 06:59:38;;;;;;;82.30;25.67;;;;;;;-0.02;90.07;102912.38;5035411;28;20479;-67
2022/01/11 07:02:08;;;;;;;72.30;24.67;;;;;;;0.18;89.64;102917.16;5002889;28;20088;-67
2022/01/11 07:04:44;;;;;;;80.72;25.92;;;;;;;0.20;88.17;102918.03;5017626;28;20807;-66
2022/01/11 07:07:11;;;;;;;88.35;26.48;;;;;;;0.11;88.94;102916.47;5018000;28;20518;-67
2022/01/11 07:09:39;;;;;;;80.32;27.52;;;;;;;0.13;87.74;102925.13;5018117;28;20048;-67
2022/01/11 07:12:06;;;;;;;83.60;26.73;;;;;;;0.03;89.26;102925.34;5001823;28;20034;-67
2022/01/11 07:14:35;;;;;;;75.75;24.75;;;;;;;0.11;88.31;102926.91;5017765;28;20402;-67
2022/01/11 07:17:02;;;;;;;70.68;23.85;;;;;;;0.10;88.96;102927.78;5034149;28;20041;-67
2022/01/11 07:19:29;;;;;;;64.78;23.50;;;;;;;0.21;88.20;102924.94;5017629;28;20051;-67
2022/01/11 07:22:02;;;;;;;65.82;22.65;;;;;;;0.05;88.09;102934.84;5003019;28;20045;-67
2022/01/11 07:24:29;;;;;;;73.60;23.77;;;;;;;0.05;87.77;102937.47;5001509;28;20095;-67
2022/01/11 07:26:56;;;;;;;83.25;22.63;;;;;;;0.18;86.72;102940.66;5017554;28;20125;-67
2022/01/11 07:29:24;;;;;;;65.82;22.42;;;;;;;0.14;88.35;102946.84;5001704;28;20120;-67
2022/01/11 07:31:51;;;;;;;65.60;23.23;;;;;;;-0.07;88.86;102942.94;5020706;28;20049;-67
2022/01/11 07:34:20;;;;;;;60.53;21.23;;;;;;;0.01;88.91;102948.00;5001745;28;20042;-67
2022/01/11 07:36:48;;;;;;;65.55;22.33;;;;;;;-0.01;89.15;102954.09;5019037;28;20041;-67
2022/01/11 07:39:15;;;;;;;61.08;21.83;;;;;;;-0.09;89.29;102953.41;5034317;28;20513;-67
2022/01/11 07:41:43;;;;;;;61.05;22.38;;;;;;;0.01;88.76;102948.84;5017368;28;20048;-67
2022/01/11 07:44:18;;;;;;;64.28;23.15;;;;;;;0.20;88.35;102957.19;5033681;28;20498;-67
2022/01/11 07:46:46;;;;;;;64.10;21.92;;;;;;;0.26;88.27;102959.66;5016859;28;20523;-67
2022/01/11 07:49:24;;;;;;;64.68;21.92;;;;;;;0.20;88.29;102957.19;5004059;28;20076;-67
2022/01/11 07:51:51;;;;;;;62.78;22.83;;;;;;;0.15;87.61;102954.66;5000628;28;20071;-67
2022/01/11 07:54:19;;;;;;;64.88;22.35;;;;;;;0.15;87.98;102957.25;4998213;28;20096;-67
2022/01/11 07:56:46;;;;;;;62.70;22.95;;;;;;;0.17;87.58;102960.69;5014748;28;20070;-67
2022/01/11 07:59:15;;;;;;;67.25;22.75;;;;;;;0.21;88.23;102965.88;5014578;28;20058;-67
2022/01/11 08:01:45;;;;;;;78.45;24.30;;;;;;;0.16;88.18;102965.94;5027791;28;20041;-67
2022/01/11 08:04:14;;;;;;;69.30;23.92;;;;;;;0.13;88.29;102966.88;5032942;28;20099;-67
2022/01/11 08:06:47;;;;;;;79.78;26.67;;;;;;;-0.03;87.75;102955.03;5034504;28;20099;-67
2022/01/11 08:09:23;;;;;;;94.18;29.00;;;;;;;0.14;87.96;102971.19;5001812;28;20091;-67
2022/01/11 08:11:50;;;;;;;92.43;27.63;;;;;;;-0.09;87.64;102976.91;5016533;28;20073;-67
2022/01/11 08:14:18;;;;;;;99.28;29.38;;;;;;;-0.12;88.08;102983.94;5034368;28;20438;-67
2022/01/11 08:16:45;;;;;;;98.43;27.80;;;;;;;-0.10;88.38;102982.16;5000526;28;20099;-67
2022/01/11 08:19:13;;;;;;;91.35;28.10;;;;;;;-0.20;88.71;102989.28;5016786;28;20091;-67
2022/01/11 08:21:40;;;;;;;100.13;29.05;;;;;;;-0.16;88.78;102988.34;5016577;28;20045;-67
2022/01/11 08:24:07;;;;;;;101.22;29.58;;;;;;;-0.19;88.71;102991.00;5016359;28;20048;-67
2022/01/11 08:26:35;;;;;;;93.65;27.33;;;;;;;-0.27;89.22;102990.31;5034254;28;20052;-67
2022/01/11 08:29:02;;;;;;;90.25;27.55;;;;;;;-0.15;89.21;102997.03;5034187;28;20409;-67
2022/01/11 08:31:29;;;;;;;120.55;31.23;;;;;;;-0.16;88.88;103003.13;5016506;28;20121;-67
2022/01/11 08:33:59;;;;;;;129.73;30.02;;;;;;;-0.21;89.25;102993.63;5014580;28;20129;-67
2022/01/11 08:36:26;;;;;;;128.63;31.75;;;;;;;-0.01;89.15;103002.84;5016135;28;20490;-67
2022/01/11 08:38:53;;;;;;;107.78;30.60;;;;;;;-0.12;89.63;103005.66;5000142;28;20133;-67
2022/01/11 08:41:22;;;;;;;102.22;30.55;;;;;;;-0.45;89.83;103015.81;5033852;28;20055;-67
2022/01/11 08:43:50;;;;;;;104.95;31.10;;;;;;;-0.25;89.92;103015.47;5016497;28;20095;-67
2022/01/11 08:46:18;;;;;;;108.55;30.73;;;;;;;-0.28;89.72;103009.44;5033469;28;20176;-68
2022/01/11 08:48:57;;;;;;;97.55;28.90;;;;;;;0.04;89.52;103019.28;5032118;28;20046;-67
2022/01/11 08:51:24;;;;;;;85.40;25.98;;;;;;;-0.02;88.98;103015.03;5032519;28;20068;-68
2022/01/11 08:53:51;;;;;;;91.25;27.70;;;;;;;-0.16;89.08;103004.00;5031257;28;20079;-68
2022/01/11 08:56:19;;;;;;;96.13;28.80;;;;;;;-0.22;89.24;103011.91;4983727;28;20048;-68
2022/01/11 08:58:47;;;;;;;89.55;28.45;;;;;;;-0.32;89.84;103011.25;5015463;28;20057;-69
2022/01/11 09:01:25;;;;;;;98.07;27.15;;;;;;;-0.52;90.67;103003.78;5027851;28;20054;-68
2022/01/11 09:03:53;;;;;;;99.10;28.83;;;;;;;-0.29;90.36;103011.19;5029894;28;20132;-68
2022/01/11 09:06:21;;;;;;;106.50;31.02;;;;;;;-0.03;89.87;103008.09;5015890;28;20052;-68
2022/01/11 09:09:02;;;;;;;102.78;29.50;;;;;;;-0.10;88.60;103000.41;5033405;28;20041;-68
2022/01/11 09:11:30;;;;;;;102.20;29.33;;;;;;;-0.22;89.24;103010.19;5016075;28;20049;-68
2022/01/11 09:13:58;;;;;;;97.40;29.95;;;;;;;-0.30;90.02;103009.47;5030334;28;20092;-68
2022/01/11 09:16:25;;;;;;;239.15;56.58;;;;;;;-0.16;89.73;103005.72;5015435;28;20042;-66
2022/01/11 09:18:53;;;;;;;142.68;33.72;;;;;;;-0.11;89.52;103017.81;5021452;28;20108;-68
2022/01/11 09:21:22;;;;;;;117.88;32.72;;;;;;;-0.11;88.96;103011.72;5013193;28;20073;-68
2022/01/11 09:23:50;;;;;;;109.70;29.98;;;;;;;0.08;88.27;103022.69;5013405;28;20376;-68
2022/01/11 09:26:18;;;;;;;97.35;29.35;;;;;;;0.08;88.81;103023.53;5011322;28;20069;-68
2022/01/11 09:28:51;;;;;;;101.95;30.35;;;;;;;0.01;89.33;103016.72;5032651;28;20049;-69
2022/01/11 09:31:19;;;;;;;100.35;29.77;;;;;;;0.10;88.68;103020.91;5036851;28;20048;-68
2022/01/11 09:33:46;;;;;;;106.32;32.70;;;;;;;0.22;88.36;103020.66;5032858;28;20502;-68
2022/01/11 09:36:13;;;;;;;114.07;33.08;;;;;;;0.30;87.86;103026.56;5032477;28;20413;-68
2022/01/11 09:38:39;;;;;;;118.20;32.08;;;;;;;0.31;88.35;103032.63;4999076;28;20510;-68
2022/01/11 09:41:06;;;;;;;123.63;32.65;;;;;;;0.32;87.79;103024.78;5032405;28;20124;-68
2022/01/11 09:43:37;;;;;;;102.87;29.27;;;;;;;0.44;87.75;103035.84;4999335;28;20045;-68
2022/01/11 09:46:08;;;;;;;102.15;30.48;;;;;;;0.42;87.37;103027.19;5013513;28;20683;-68
2022/01/11 09:48:38;;;;;;;86.75;29.23;;;;;;;0.53;87.30;103028.69;4998095;28;20049;-68
2022/01/11 09:51:05;;;;;;;88.90;29.08;;;;;;;0.59;86.65;103029.47;5014086;28;20041;-69
2022/01/11 09:53:34;;;;;;;91.30;30.15;;;;;;;0.60;87.46;103026.81;5005972;28;20527;-67
2022/01/11 09:56:07;;;;;;;90.43;30.60;;;;;;;0.56;86.77;103027.75;5034879;28;20073;-68
2022/01/11 09:58:37;;;;;;;85.00;29.27;;;;;;;0.61;86.86;103027.69;5021187;28;20055;-68
2022/01/11 10:01:24;;;;;;;82.80;28.52;;;;;;;0.66;85.83;103024.06;5016540;28;20038;-69
2022/01/11 10:04:24;;;;;;;102.63;29.25;;;;;;;0.56;87.20;103025.16;5107243;27;20395;-68
2022/01/11 10:07:07;;;;;;;82.20;29.50;;;;;;;0.64;86.59;103022.38;5090010;28;20401;-68
2022/01/11 10:09:50;;;;;;;88.55;29.58;;;;;;;0.65;86.87;103018.88;5073944;28;20076;-68
2022/01/11 10:12:18;;;;;;;91.03;29.05;;;;;;;0.76;86.52;103016.88;5071264;28;20123;-69
2022/01/11 10:14:49;;;;;;;106.82;31.85;;;;;;;0.82;86.51;103019.38;5088814;28;20119;-67
2022/01/11 10:17:24;;;;;;;104.35;30.77;;;;;;;0.92;86.15;103012.16;5070600;28;20476;-67
2022/01/11 10:20:17;;;;;;;99.70;32.15;;;;;;;0.70;86.42;103010.03;5087710;28;20048;-69
2022/01/11 10:22:56;;;;;;;91.45;30.65;;;;;;;0.79;85.81;103013.34;5088046;28;20045;-67
2022/01/11 10:25:24;;;;;;;84.10;27.73;;;;;;;0.82;86.34;103008.91;5087774;28;20504;-67
2022/01/11 10:27:56;;;;;;;88.75;28.90;;;;;;;0.97;86.20;103012.91;5088395;28;20036;-67
2022/01/11 10:30:25;;;;;;;74.20;28.00;;;;;;;0.91;85.62;103020.88;5086518;28;20048;-67
2022/01/11 10:33:04;;;;;;;70.15;26.80;;;;;;;0.66;86.27;103025.81;5069902;28;20044;-67
2022/01/11 10:35:42;;;;;;;74.55;27.33;;;;;;;0.75;85.78;103021.25;5084615;28;20056;-67
2022/01/11 10:38:31;;;;;;;66.75;26.38;;;;;;;0.80;85.79;103021.16;5072693;28;20045;-69
2022/01/11 10:41:03;;;;;;;75.57;28.85;;;;;;;0.86;86.13;103028.00;5065894;28;20052;-66
2022/01/11 10:43:42;;;;;;;77.40;28.60;;;;;;;0.82;86.22;103021.97;5069813;28;20040;-68
2022/01/11 10:46:13;;;;;;;69.38;26.42;;;;;;;0.89;85.97;103028.78;5054689;28;20067;-67
2022/01/11 10:48:44;;;;;;;72.07;27.40;;;;;;;0.81;85.98;103022.84;5088686;28;20435;-68
2022/01/11 10:51:14;;;;;;;67.65;26.25;;;;;;;0.91;85.56;103027.00;5088534;28;20045;-68
2022/01/11 10:53:49;;;;;;;;;;;;;;;0.90;84.84;103019.19;5083866;28;20400;-68
2022/01/11 10:56:18;;;;;;;63.05;25.13;;;;;;;1.11;84.42;103025.63;5087680;28;19927;-67
2022/01/11 10:59:09;;;;;;;62.15;24.90;;;;;;;1.04;84.95;103029.31;5088373;28;20056;-67
2022/01/11 11:01:38;;;;;;;71.30;27.88;;;;;;;0.81;84.48;103025.47;5088162;28;20059;-69
2022/01/11 11:04:26;;;;;;;70.15;26.98;;;;;;;0.90;85.65;103032.25;5080597;28;20084;-66
2022/01/11 11:07:10;;;;;;;66.70;26.88;;;;;;;0.98;85.31;103032.06;5075264;28;20053;-66
2022/01/11 11:09:53;;;;;;;67.55;27.02;;;;;;;1.15;85.12;103041.22;5079653;28;20405;-68
2022/01/11 11:12:23;;;;;;;67.00;26.05;;;;;;;1.11;84.74;103030.88;5087128;28;20044;-68
2022/01/11 11:15:00;;;;;;;66.43;25.23;;;;;;;1.11;85.41;103036.09;5071805;28;20489;-66
2022/01/11 11:17:35;;;;;;;77.63;28.20;;;;;;;1.17;85.92;103049.03;5069873;28;20475;-66
2022/01/11 11:20:10;;;;;;;72.38;27.48;;;;;;;1.09;85.18;103044.00;5074058;28;20048;-68
2022/01/11 11:22:37;;;;;;;75.85;28.35;;;;;;;1.18;85.61;103042.91;5073089;28;20072;-66
2022/01/11 11:25:04;;;;;;;78.65;29.55;;;;;;;1.33;84.36;103046.91;5055736;28;20044;-68
2022/01/11 11:27:31;;;;;;;80.80;29.73;;;;;;;1.39;84.55;103041.53;5066677;28;20067;-68